Time;durP1;ratioP1;P1;durP2;ratioP2;P2;SDS_P1;SDS_P2;PMS_P1;PMS_P2;Temp;Humidity;BMP_temperature;BMP_pressure;BME280_temperature;BME280_humidity;BME280_pressure;Samples;Min_cycle;Max_cycle;Signal;HPM_P1;HPM_P2
2022/09/15 00:01:23;;;;;;;15.43;11.18;;;;;;;13.08;100.00;100663.41;5057423;28;20037;-58
2022/09/15 00:03:49;;;;;;;15.15;11.60;;;;;;;13.07;99.98;100672.38;5064562;28;20025;-59
2022/09/15 00:06:15;;;;;;;20.40;12.07;;;;;;;13.01;100.00;100668.44;5058206;28;20052;-59
2022/09/15 00:08:41;;;;;;;13.70;10.90;;;;;;;13.01;100.00;100662.28;5058385;28;20052;-59
2022/09/15 00:11:19;;;;;;;15.40;10.73;;;;;;;13.02;100.00;100661.28;5058053;28;20033;-58
2022/09/15 00:13:45;;;;;;;13.80;12.20;;;;;;;12.95;99.87;100663.66;5053190;28;20428;-59
2022/09/15 00:16:11;;;;;;;18.48;11.73;;;;;;;12.96;100.00;100670.69;5066236;28;20764;-59
2022/09/15 00:18:38;;;;;;;18.73;12.80;;;;;;;12.93;100.00;100669.13;5067840;28;20024;-59
2022/09/15 00:21:06;;;;;;;13.98;11.88;;;;;;;12.93;100.00;100673.63;5072124;28;20085;-59
2022/09/15 00:23:31;;;;;;;17.48;13.40;;;;;;;12.91;100.00;100663.09;5050176;28;20025;-59
2022/09/15 00:25:57;;;;;;;15.60;12.25;;;;;;;12.90;100.00;100655.22;5052369;28;20036;-58
2022/09/15 00:28:22;;;;;;;17.20;13.27;;;;;;;12.91;100.00;100656.91;5056212;28;20029;-59
2022/09/15 00:30:51;;;;;;;14.85;12.15;;;;;;;12.83;100.00;100646.94;5063844;28;20295;-59
2022/09/15 00:33:18;;;;;;;19.50;13.45;;;;;;;12.90;100.00;100652.56;5052147;28;20083;-58
2022/09/15 00:35:45;;;;;;;16.35;12.90;;;;;;;12.89;100.00;100645.53;5052320;28;20410;-59
2022/09/15 00:38:12;;;;;;;15.70;12.60;;;;;;;12.89;100.00;100650.84;5039137;28;20030;-59
2022/09/15 00:40:48;;;;;;;19.85;13.73;;;;;;;12.88;100.00;100652.69;5062220;28;20021;-59
2022/09/15 00:43:15;;;;;;;19.50;13.48;;;;;;;12.88;100.00;100655.34;5051718;28;20033;-58
2022/09/15 00:45:41;;;;;;;20.17;13.15;;;;;;;12.88;100.00;100650.03;5059656;28;20529;-59
2022/09/15 00:48:15;;;;;;;16.23;13.50;;;;;;;12.80;100.00;100636.53;5049909;28;20133;-58
2022/09/15 00:50:54;;;;;;;16.58;13.43;;;;;;;12.84;100.00;100653.09;5054413;28;20131;-59
2022/09/15 00:53:22;;;;;;;21.33;15.52;;;;;;;12.86;100.00;100659.16;5074985;28;20055;-59
2022/09/15 00:55:49;;;;;;;22.58;13.93;;;;;;;12.87;100.00;100655.50;5075810;28;20028;-58
2022/09/15 00:58:23;;;;;;;18.58;13.88;;;;;;;12.87;100.00;100659.03;5061134;28;20083;-57
2022/09/15 01:00:59;;;;;;;18.85;13.85;;;;;;;12.87;100.00;100661.69;5067728;28;20056;-59
2022/09/15 01:03:26;;;;;;;18.02;13.95;;;;;;;12.88;100.00;100665.19;5055700;28;20142;-59
2022/09/15 01:05:55;;;;;;;16.27;14.18;;;;;;;12.90;100.00;100660.56;5056154;28;20021;-59
2022/09/15 01:08:33;;;;;;;20.33;14.45;;;;;;;12.92;100.00;100654.13;5043111;28;20442;-59
2022/09/15 01:10:59;;;;;;;23.20;15.10;;;;;;;12.91;100.00;100657.75;5075382;28;20040;-60
2022/09/15 01:13:25;;;;;;;21.45;15.73;;;;;;;12.92;100.00;100663.91;5069675;28;20085;-59
2022/09/15 01:16:09;;;;;;;22.35;15.27;;;;;;;12.96;100.00;100658.19;5075352;28;20021;-60
2022/09/15 01:18:44;;;;;;;18.05;15.05;;;;;;;12.98;100.00;100657.22;5074927;28;20033;-59
2022/09/15 01:21:20;;;;;;;19.48;15.70;;;;;;;13.00;100.00;100650.75;5055321;28;20056;-59
2022/09/15 01:24:24;;;;;;;19.60;15.77;;;;;;;13.02;100.00;100647.94;5072198;28;20389;-60
2022/09/15 01:27:27;;;;;;;19.27;15.63;;;;;;;13.02;100.00;100648.78;5071715;28;20413;-59
2022/09/15 01:30:12;;;;;;;20.48;15.25;;;;;;;13.05;100.00;100651.16;5069627;28;20032;-59
2022/09/15 01:33:02;;;;;;;20.38;15.00;;;;;;;13.07;100.00;100651.91;5044540;28;20036;-59
2022/09/15 01:35:32;;;;;;;20.55;15.32;;;;;;;13.06;100.00;100647.53;5050178;28;20104;-60
2022/09/15 01:38:33;;;;;;;23.15;15.05;;;;;;;13.07;100.00;100649.22;5048672;28;20074;-59
2022/09/15 01:41:26;;;;;;;18.25;15.63;;;;;;;13.10;100.00;100646.25;5043940;28;20039;-59
2022/09/15 01:43:55;;;;;;;17.40;14.60;;;;;;;13.10;100.00;100646.25;5050752;28;20017;-59
2022/09/15 01:46:24;;;;;;;19.00;14.18;;;;;;;13.08;100.00;100645.56;5057540;28;20073;-60
2022/09/15 01:48:53;;;;;;;20.10;13.93;;;;;;;13.08;100.00;100650.91;5074458;28;20016;-59
2022/09/15 01:51:21;;;;;;;22.25;13.70;;;;;;;13.10;100.00;100650.75;5069628;28;20025;-59
2022/09/15 01:53:49;;;;;;;17.23;13.60;;;;;;;13.07;100.00;100648.38;5055751;28;20028;-59
2022/09/15 01:56:14;;;;;;;19.17;13.77;;;;;;;13.07;100.00;100653.69;5065998;28;20580;-59
2022/09/15 01:58:40;;;;;;;16.00;13.65;;;;;;;13.04;100.00;100648.63;5073894;28;20074;-59
2022/09/15 02:01:16;;;;;;;18.92;13.65;;;;;;;13.02;100.00;100648.78;5070300;28;20029;-59
2022/09/15 02:03:47;;;;;;;18.33;13.82;;;;;;;12.99;100.00;100651.75;5054901;28;20123;-59
2022/09/15 02:06:34;;;;;;;17.67;13.20;;;;;;;12.98;100.00;100655.38;5050194;28;20021;-59
2022/09/15 02:09:06;;;;;;;14.73;12.80;;;;;;;12.96;100.00;100649.34;5055016;28;20102;-59
2022/09/15 02:11:35;;;;;;;15.88;13.48;;;;;;;12.92;100.00;100640.78;5055054;28;20017;-59
2022/09/15 02:14:16;;;;;;;17.05;14.18;;;;;;;12.96;100.00;100652.00;5048423;28;20135;-59
2022/09/15 02:16:47;;;;;;;21.00;14.18;;;;;;;12.94;100.00;100643.31;5055859;28;20079;-59
2022/09/15 02:19:18;;;;;;;16.75;13.60;;;;;;;12.96;100.00;100652.84;5049788;28;20431;-59
2022/09/15 02:21:52;;;;;;;17.80;13.65;;;;;;;12.96;100.00;100644.03;5056329;28;20060;-59
2022/09/15 02:24:23;;;;;;;18.13;14.38;;;;;;;12.98;100.00;100654.53;5052780;28;20380;-59
2022/09/15 02:26:53;;;;;;;16.85;13.68;;;;;;;12.97;100.00;100645.69;5051464;28;20025;-59
2022/09/15 02:29:21;;;;;;;16.33;13.80;;;;;;;12.96;100.00;100642.19;5055707;28;20021;-59
2022/09/15 02:31:50;;;;;;;18.35;13.63;;;;;;;12.95;100.00;100642.31;5057318;28;20021;-59
2022/09/15 02:34:21;;;;;;;18.50;13.60;;;;;;;12.94;100.00;100643.31;5053060;28;20029;-59
2022/09/15 02:36:49;;;;;;;19.55;13.60;;;;;;;12.92;100.00;100642.59;5055971;28;20074;-59
2022/09/15 02:39:19;;;;;;;20.70;14.43;;;;;;;12.91;100.00;100644.44;5047143;28;20033;-59
2022/09/15 02:41:45;;;;;;;16.40;14.38;;;;;;;12.94;100.00;100644.16;5056821;28;20021;-59
2022/09/15 02:44:10;;;;;;;18.83;14.60;;;;;;;12.91;100.00;100647.09;5055479;28;20170;-58
2022/09/15 02:46:38;;;;;;;19.13;13.13;;;;;;;12.89;100.00;100645.53;5047017;28;20029;-59
2022/09/15 02:49:04;;;;;;;16.15;13.95;;;;;;;12.87;100.00;100652.81;5054980;28;20458;-60
2022/09/15 02:51:30;;;;;;;17.77;13.15;;;;;;;12.86;100.00;100643.16;5056570;28;20052;-59
2022/09/15 02:53:55;;;;;;;16.08;13.75;;;;;;;12.81;100.00;100646.22;5055073;28;20037;-59
2022/09/15 02:56:21;;;;;;;14.32;12.90;;;;;;;12.82;100.00;100650.56;5045176;28;20421;-59
2022/09/15 02:58:46;;;;;;;17.35;13.18;;;;;;;12.76;100.00;100653.78;5054861;28;20033;-60
2022/09/15 03:01:16;;;;;;;14.10;12.68;;;;;;;12.73;100.00;100652.22;5058364;28;20386;-59
2022/09/15 03:03:42;;;;;;;16.98;14.20;;;;;;;12.72;100.00;100652.38;5053754;28;20056;-59
2022/09/15 03:06:17;;;;;;;18.77;13.80;;;;;;;12.70;100.00;100657.00;5053429;28;20040;-58
2022/09/15 03:08:47;;;;;;;15.75;12.68;;;;;;;12.68;100.00;100656.31;5046479;28;20617;-59
2022/09/15 03:11:13;;;;;;;17.27;13.43;;;;;;;12.67;100.00;100659.94;5053587;28;20056;-59
2022/09/15 03:13:38;;;;;;;18.13;12.90;;;;;;;12.65;100.00;100661.91;5052695;28;20106;-58
2022/09/15 03:16:12;;;;;;;15.82;13.02;;;;;;;12.61;100.00;100656.00;5052895;28;20040;-58
2022/09/15 03:18:38;;;;;;;17.33;13.25;;;;;;;12.60;100.00;100662.28;5066280;28;20040;-58
2022/09/15 03:21:06;;;;;;;18.65;13.15;;;;;;;12.49;100.00;100655.25;5072977;28;20031;-59
2022/09/15 03:23:32;;;;;;;17.63;13.57;;;;;;;12.58;100.00;100669.59;5053337;28;20067;-59
2022/09/15 03:25:58;;;;;;;15.57;13.48;;;;;;;12.53;100.00;100669.16;5072400;28;20056;-58
2022/09/15 03:28:25;;;;;;;15.27;13.60;;;;;;;12.51;100.00;100671.94;5070941;28;20023;-59
2022/09/15 03:30:51;;;;;;;14.93;12.10;;;;;;;12.49;100.00;100676.56;5072018;28;20046;-59
2022/09/15 03:33:16;;;;;;;15.82;13.90;;;;;;;12.48;100.00;100676.72;5053324;28;20526;-59
2022/09/15 03:35:44;;;;;;;21.77;13.67;;;;;;;12.50;100.00;100680.06;5072264;28;20029;-60
2022/09/15 03:38:10;;;;;;;15.05;13.45;;;;;;;12.51;100.00;100685.28;5070688;28;20337;-59
2022/09/15 03:40:36;;;;;;;16.20;13.57;;;;;;;12.50;100.00;100682.72;5058693;28;20052;-59
2022/09/15 03:43:02;;;;;;;19.10;14.18;;;;;;;12.51;100.00;100682.59;5070594;28;20485;-59
2022/09/15 03:45:27;;;;;;;21.15;14.65;;;;;;;12.48;100.00;100682.88;5068865;28;20025;-60
2022/09/15 03:47:52;;;;;;;17.52;14.43;;;;;;;12.52;100.00;100688.75;5069075;28;20493;-59
2022/09/15 03:50:18;;;;;;;15.63;14.00;;;;;;;12.50;100.00;100688.91;5071680;28;20029;-60
2022/09/15 03:52:43;;;;;;;25.25;15.68;;;;;;;12.50;100.00;100685.41;5058246;28;20394;-59
2022/09/15 03:55:08;;;;;;;20.00;14.77;;;;;;;12.46;100.00;100682.16;5071018;28;20044;-59
2022/09/15 03:57:34;;;;;;;17.48;14.30;;;;;;;12.46;100.00;100686.66;5068978;28;20027;-59
2022/09/15 03:59:59;;;;;;;20.63;14.93;;;;;;;12.45;100.00;100680.47;5071342;28;20162;-57
2022/09/15 04:02:24;;;;;;;18.27;14.05;;;;;;;12.45;100.00;100680.47;5057368;28;20036;-59
2022/09/15 04:04:50;;;;;;;16.38;14.10;;;;;;;12.46;100.00;100682.16;5051500;28;20163;-60
2022/09/15 04:07:15;;;;;;;15.82;14.20;;;;;;;12.42;100.00;100679.91;5052703;28;20053;-59
2022/09/15 04:09:40;;;;;;;19.07;14.00;;;;;;;12.43;100.00;100682.44;5047384;28;20021;-59
2022/09/15 04:12:06;;;;;;;17.02;13.90;;;;;;;12.43;100.00;100677.09;5046075;28;20283;-59
2022/09/15 04:14:31;;;;;;;26.67;14.82;;;;;;;12.41;100.00;100679.06;5047739;28;20437;-59
2022/09/15 04:16:57;;;;;;;17.50;13.80;;;;;;;12.38;100.00;100677.50;5065771;28;20104;-59
2022/09/15 04:19:22;;;;;;;17.80;13.57;;;;;;;12.37;100.00;100670.50;5072144;28;20074;-59
2022/09/15 04:21:47;;;;;;;22.93;14.13;;;;;;;12.39;100.00;100679.19;5071789;28;20123;-59
2022/09/15 04:24:13;;;;;;;18.00;14.48;;;;;;;12.40;100.00;100686.19;5063342;28;20360;-59
2022/09/15 04:26:38;;;;;;;20.33;14.68;;;;;;;12.40;100.00;100685.34;5075946;28;20028;-59
2022/09/15 04:29:11;;;;;;;18.33;13.57;;;;;;;12.42;100.00;100680.72;5075035;28;20541;-59
2022/09/15 04:31:37;;;;;;;19.73;14.73;;;;;;;12.41;100.00;100679.06;5074673;28;20033;-58
2022/09/15 04:34:02;;;;;;;19.60;14.55;;;;;;;12.42;100.00;100672.75;5062125;28;20040;-59
2022/09/15 04:36:28;;;;;;;15.57;14.07;;;;;;;12.42;100.00;100683.38;5074816;28;20028;-59
2022/09/15 04:38:54;;;;;;;17.48;15.60;;;;;;;12.45;100.00;100684.97;5063107;28;20543;-59
2022/09/15 04:41:20;;;;;;;18.58;14.90;;;;;;;12.47;100.00;100686.50;5066352;28;20378;-59
2022/09/15 04:43:47;;;;;;;19.83;15.27;;;;;;;12.48;100.00;100679.38;5075410;28;20017;-59
2022/09/15 04:46:13;;;;;;;17.80;15.90;;;;;;;12.48;100.00;100682.88;5054198;28;20365;-58
2022/09/15 04:48:38;;;;;;;18.83;15.52;;;;;;;12.48;100.00;100682.88;5075383;28;20043;-58
2022/09/15 04:51:06;;;;;;;20.17;15.45;;;;;;;12.48;100.00;100680.19;5074781;28;20025;-59
2022/09/15 04:53:31;;;;;;;23.52;15.50;;;;;;;12.50;100.00;100688.91;5074256;28;20025;-58
2022/09/15 04:56:02;;;;;;;19.83;16.25;;;;;;;12.52;100.00;100688.75;5066519;28;20031;-59
2022/09/15 04:58:27;;;;;;;19.98;15.10;;;;;;;12.52;100.00;100686.97;5074955;28;20035;-59
2022/09/15 05:00:52;;;;;;;21.50;15.60;;;;;;;12.54;100.00;100687.66;5070873;28;20066;-59
2022/09/15 05:03:18;;;;;;;16.80;14.75;;;;;;;12.55;100.00;100691.16;5075431;28;20024;-60
2022/09/15 05:05:43;;;;;;;19.52;16.25;;;;;;;12.54;100.00;100686.81;5073197;28;20046;-59
2022/09/15 05:08:08;;;;;;;19.88;15.48;;;;;;;12.52;100.00;100670.97;5062905;28;20485;-59
2022/09/15 05:10:33;;;;;;;17.48;14.82;;;;;;;12.57;100.00;100675.88;5074842;28;20034;-59
2022/09/15 05:12:59;;;;;;;21.40;14.60;;;;;;;12.54;100.00;100676.16;5056152;28;20466;-59
2022/09/15 05:15:24;;;;;;;18.50;15.38;;;;;;;12.55;100.00;100675.19;5072989;28;20024;-58
2022/09/15 05:17:50;;;;;;;18.77;15.23;;;;;;;12.57;100.00;100670.56;5060439;28;20510;-59
2022/09/15 05:20:16;;;;;;;19.40;14.82;;;;;;;12.54;100.00;100668.16;5074862;28;20517;-59
2022/09/15 05:22:42;;;;;;;17.27;14.73;;;;;;;12.59;100.00;100673.94;5051747;28;20497;-58
2022/09/15 05:25:08;;;;;;;16.98;14.68;;;;;;;12.58;100.00;100670.41;5074582;28;20021;-59
2022/09/15 05:27:33;;;;;;;20.63;16.08;;;;;;;12.61;100.00;100671.97;5075064;28;20020;-59
2022/09/15 05:29:58;;;;;;;19.77;15.73;;;;;;;12.63;100.00;100679.84;5053866;28;20029;-59
2022/09/15 05:32:24;;;;;;;18.00;15.50;;;;;;;12.62;100.00;100678.97;5068523;28;20463;-60
2022/09/15 05:34:49;;;;;;;19.20;15.00;;;;;;;12.62;100.00;100692.31;5055286;28;20067;-59
2022/09/15 05:37:15;;;;;;;18.45;15.20;;;;;;;12.66;100.00;100687.56;5041375;28;20025;-59
2022/09/15 05:39:40;;;;;;;17.50;14.55;;;;;;;12.66;100.00;100693.75;5055176;28;20064;-59
2022/09/15 05:42:06;;;;;;;17.90;14.25;;;;;;;12.68;100.00;100690.94;5042927;28;20078;-59
2022/09/15 05:44:31;;;;;;;20.35;15.10;;;;;;;12.67;100.00;100699.91;5055505;28;20446;-59
2022/09/15 05:46:56;;;;;;;17.48;13.82;;;;;;;12.71;100.00;100699.50;5055530;28;20025;-59
2022/09/15 05:49:22;;;;;;;22.27;16.20;;;;;;;12.72;100.00;100708.34;5048464;28;20109;-60
2022/09/15 05:51:47;;;;;;;19.25;15.95;;;;;;;12.73;100.00;100705.53;5055274;28;20032;-59
2022/09/15 05:54:12;;;;;;;17.52;15.68;;;;;;;12.76;100.00;100709.75;5055227;28;20108;-59
2022/09/15 05:56:37;;;;;;;24.23;16.98;;;;;;;12.78;100.00;100713.97;5055210;28;20017;-59
2022/09/15 05:59:03;;;;;;;20.40;16.13;;;;;;;12.80;100.00;100721.00;5048518;28;20433;-59
2022/09/15 06:01:29;;;;;;;22.02;16.00;;;;;;;12.78;100.00;100713.97;5053037;28;20028;-59
2022/09/15 06:03:56;;;;;;;22.00;16.05;;;;;;;12.83;100.00;100712.72;5050337;28;20037;-58
2022/09/15 06:06:23;;;;;;;22.05;16.60;;;;;;;12.83;100.00;100712.72;5065483;28;20472;-59
2022/09/15 06:08:54;;;;;;;22.08;16.88;;;;;;;12.84;100.00;100720.59;5047436;28;20103;-58
2022/09/15 06:11:22;;;;;;;20.52;16.33;;;;;;;12.83;100.00;100718.91;5041583;28;20108;-59
2022/09/15 06:13:47;;;;;;;20.45;16.42;;;;;;;12.90;100.00;100727.19;5046639;28;20086;-59
2022/09/15 06:16:18;;;;;;;21.20;17.17;;;;;;;12.92;100.00;100728.75;5047876;28;20041;-59
2022/09/15 06:18:45;;;;;;;18.20;16.20;;;;;;;12.96;100.00;100732.00;5053880;28;20159;-59
2022/09/15 06:21:13;;;;;;;27.85;16.83;;;;;;;12.97;100.00;100728.31;5052920;28;20232;-59
2022/09/15 06:23:39;;;;;;;23.88;17.80;;;;;;;13.01;100.00;100732.44;5050087;28;20048;-60
2022/09/15 06:26:10;;;;;;;21.25;16.50;;;;;;;13.04;100.00;100729.50;5038546;28;20042;-60
2022/09/15 06:28:35;;;;;;;22.92;17.25;;;;;;;13.11;100.00;100737.78;5035674;28;20030;-59
2022/09/15 06:31:00;;;;;;;21.48;17.80;;;;;;;13.16;100.00;100732.06;5039358;28;20119;-59
2022/09/15 06:33:26;;;;;;;19.65;16.52;;;;;;;13.19;100.00;100745.09;5039830;28;20029;-59
2022/09/15 06:35:52;;;;;;;23.63;18.00;;;;;;;13.21;100.00;100749.31;5036547;28;20048;-59
2022/09/15 06:38:17;;;;;;;24.40;18.13;;;;;;;13.26;100.00;100749.75;5035406;28;20021;-60
2022/09/15 06:40:44;;;;;;;22.75;18.42;;;;;;;13.33;100.00;100755.41;5037043;28;20450;-59
2022/09/15 06:43:09;;;;;;;22.55;17.73;;;;;;;13.37;100.00;100745.28;5036967;28;20053;-59
2022/09/15 06:45:35;;;;;;;29.33;18.98;;;;;;;13.38;100.00;100752.34;5034150;28;20072;-59
2022/09/15 06:48:01;;;;;;;21.35;17.65;;;;;;;13.40;100.00;100756.53;5035278;28;20060;-59
2022/09/15 06:50:26;;;;;;;23.20;17.80;;;;;;;13.43;100.00;100758.94;5036632;28;20067;-60
2022/09/15 06:52:52;;;;;;;20.63;18.38;;;;;;;13.46;100.00;100755.16;5034053;28;20501;-59
2022/09/15 06:55:17;;;;;;;23.58;18.23;;;;;;;13.47;100.00;100757.69;5039283;28;20041;-60
2022/09/15 06:57:43;;;;;;;25.35;18.10;;;;;;;13.53;100.00;100758.09;5042096;28;20067;-60
2022/09/15 07:00:09;;;;;;;24.00;17.42;;;;;;;13.56;100.00;100760.50;5036534;28;20041;-59
2022/09/15 07:02:34;;;;;;;24.20;18.17;;;;;;;13.62;100.00;100767.94;5036798;28;20509;-59
2022/09/15 07:04:59;;;;;;;23.08;18.80;;;;;;;13.69;100.00;100774.41;5041626;28;20053;-59
2022/09/15 07:07:26;;;;;;;24.35;17.88;;;;;;;13.73;100.00;100769.63;5044817;28;20096;-59
2022/09/15 07:09:51;;;;;;;24.88;19.25;;;;;;;13.82;100.00;100776.78;5034280;28;20459;-57
2022/09/15 07:12:16;;;;;;;22.27;17.53;;;;;;;13.90;100.00;100774.25;5034949;28;20071;-59
2022/09/15 07:14:42;;;;;;;25.27;17.98;;;;;;;13.94;100.00;100782.81;5032133;28;20319;-59
2022/09/15 07:17:07;;;;;;;20.10;17.75;;;;;;;13.97;100.00;100785.22;5040802;28;20025;-59
2022/09/15 07:19:32;;;;;;;24.73;16.92;;;;;;;14.02;100.00;100777.63;5032928;28;20041;-59
2022/09/15 07:21:58;;;;;;;23.90;16.75;;;;;;;14.07;100.00;100786.06;5031246;28;20072;-59
2022/09/15 07:24:23;;;;;;;19.47;16.37;;;;;;;14.14;100.00;100789.00;5033277;28;20084;-59
2022/09/15 07:26:48;;;;;;;20.60;17.02;;;;;;;14.19;100.00;100792.94;5032714;28;21252;-58
2022/09/15 07:29:13;;;;;;;17.98;15.25;;;;;;;14.25;100.00;100787.03;5035046;28;20483;-59
2022/09/15 07:31:39;;;;;;;22.93;16.03;;;;;;;14.32;100.00;100790.00;5033551;28;20039;-59
2022/09/15 07:34:04;;;;;;;26.02;15.50;;;;;;;14.34;100.00;100789.81;5040990;28;20716;-59
2022/09/15 07:36:30;;;;;;;22.83;15.48;;;;;;;14.38;100.00;100791.22;5048837;28;20025;-60
2022/09/15 07:38:56;;;;;;;18.33;15.48;;;;;;;14.42;100.00;100787.28;5044518;28;20507;-60
2022/09/15 07:41:29;;;;;;;19.35;14.93;;;;;;;14.42;100.00;100787.28;5049689;28;20033;-58
2022/09/15 07:43:57;;;;;;;23.23;15.07;;;;;;;14.53;100.00;100797.78;5052608;28;20032;-57
2022/09/15 07:46:25;;;;;;;21.23;15.13;;;;;;;14.57;100.00;100799.22;5057547;28;20474;-56
2022/09/15 07:48:53;;;;;;;17.45;14.65;;;;;;;14.64;100.00;100798.63;5052611;28;20497;-58
2022/09/15 07:51:18;;;;;;;18.75;15.18;;;;;;;14.66;100.00;100797.53;5055388;28;20036;-57
2022/09/15 07:53:46;;;;;;;18.42;14.82;;;;;;;14.70;100.00;100793.56;5045064;28;20390;-58
2022/09/15 07:56:11;;;;;;;20.58;14.85;;;;;;;14.75;100.00;100793.13;5047155;28;20467;-59
2022/09/15 07:58:37;;;;;;;19.35;13.52;;;;;;;14.76;100.00;100795.66;5040706;28;20033;-57
2022/09/15 08:01:04;;;;;;;17.20;13.07;;;;;;;14.82;100.00;100802.22;5048258;28;20041;-59
2022/09/15 08:03:29;;;;;;;16.63;13.27;;;;;;;14.85;100.00;100809.97;5042162;28;20087;-59
2022/09/15 08:05:59;;;;;;;20.48;13.75;;;;;;;14.89;100.00;100810.50;5051398;28;20044;-58
2022/09/15 08:08:24;;;;;;;15.10;12.10;;;;;;;14.93;100.00;100802.06;5038529;28;20095;-58
2022/09/15 08:10:51;;;;;;;16.88;12.40;;;;;;;14.95;100.00;100805.44;5047316;28;20060;-58
2022/09/15 08:13:16;;;;;;;19.42;12.52;;;;;;;15.01;100.00;100811.19;5037636;28;20112;-59
2022/09/15 08:15:42;;;;;;;18.85;12.98;;;;;;;15.08;100.00;100809.63;5041784;28;20080;-57
2022/09/15 08:18:08;;;;;;;16.23;12.55;;;;;;;15.08;98.86;100814.97;5034262;28;20037;-58
2022/09/15 08:20:33;;;;;;;17.85;13.48;;;;;;;15.12;98.89;100819.88;5050834;28;20057;-58
2022/09/15 08:22:58;;;;;;;16.15;12.57;;;;;;;15.14;98.97;100823.25;5065409;28;20103;-58
2022/09/15 08:25:24;;;;;;;14.35;11.80;;;;;;;15.21;99.23;100826.16;5060710;28;20059;-58
2022/09/15 08:28:00;;;;;;;17.80;13.15;;;;;;;15.26;99.82;100834.59;5061662;28;20029;-58
2022/09/15 08:30:26;;;;;;;14.43;11.50;;;;;;;15.33;100.00;100829.47;5040249;28;20058;-58
2022/09/15 08:32:52;;;;;;;16.05;12.00;;;;;;;15.36;99.26;100830.03;5047766;28;20033;-57
2022/09/15 08:35:18;;;;;;;15.27;11.27;;;;;;;15.40;98.50;100835.09;5040716;28;20029;-58
2022/09/15 08:37:44;;;;;;;18.80;12.23;;;;;;;15.41;98.38;100834.09;5053142;28;20052;-59
2022/09/15 08:40:23;;;;;;;16.05;10.80;;;;;;;15.39;96.42;100836.91;5044931;28;20489;-58
2022/09/15 08:42:54;;;;;;;16.48;11.55;;;;;;;15.37;97.80;100838.91;5039979;28;20112;-58
2022/09/15 08:45:23;;;;;;;15.70;10.90;;;;;;;15.42;96.87;100841.97;5047508;28;20044;-59
2022/09/15 08:47:57;;;;;;;15.05;11.52;;;;;;;15.41;96.22;100842.13;5034782;28;20037;-59
2022/09/15 08:50:38;;;;;;;15.73;10.23;;;;;;;15.47;95.77;100846.84;5037639;28;20021;-58
2022/09/15 08:53:13;;;;;;;15.13;10.23;;;;;;;15.50;96.47;100841.22;5042839;28;20056;-58
2022/09/15 08:55:52;;;;;;;13.30;10.90;;;;;;;15.54;96.44;100846.13;5045228;28;20037;-59
2022/09/15 08:58:25;;;;;;;16.83;10.95;;;;;;;15.56;96.91;100854.00;5033682;28;20021;-57
2022/09/15 09:01:00;;;;;;;15.52;10.48;;;;;;;15.55;95.76;100855.00;5034856;28;20369;-59
2022/09/15 09:03:43;;;;;;;14.75;10.60;;;;;;;15.63;97.06;100859.59;5043178;28;20034;-59
2022/09/15 09:06:44;;;;;;;18.33;10.02;;;;;;;15.65;96.81;100855.75;5043625;28;20470;-58
2022/09/15 09:09:41;;;;;;;17.25;10.27;;;;;;;15.68;95.36;100866.19;5039651;28;20083;-58
2022/09/15 09:12:36;;;;;;;20.23;10.32;;;;;;;15.79;96.86;100875.88;5041204;28;20053;-59
2022/09/15 09:15:43;;;;;;;15.68;9.90;;;;;;;15.86;97.47;100874.28;5034522;28;20124;-58
2022/09/15 09:18:26;;;;;;;13.68;9.43;;;;;;;15.92;97.76;100870.16;5036515;28;20039;-58
2022/09/15 09:21:10;;;;;;;12.60;8.20;;;;;;;16.01;96.16;100871.91;5043578;28;20104;-58
2022/09/15 09:23:47;;;;;;;11.85;6.85;;;;;;;16.05;94.84;100884.03;5048701;28;20017;-59
2022/09/15 09:26:14;;;;;;;9.13;6.22;;;;;;;16.12;93.33;100878.03;5041305;28;20486;-58
2022/09/15 09:28:54;;;;;;;10.75;6.70;;;;;;;16.14;94.44;100871.56;5041137;28;20069;-59
2022/09/15 09:31:21;;;;;;;11.57;5.82;;;;;;;16.18;93.02;100864.88;5037466;28;20033;-58
2022/09/15 09:33:55;;;;;;;14.57;5.40;;;;;;;16.22;91.12;100873.44;5038903;28;20356;-58
2022/09/15 09:36:20;;;;;;;9.23;4.70;;;;;;;16.25;92.48;100873.13;5042314;28;20021;-59
2022/09/15 09:38:48;;;;;;;11.52;5.40;;;;;;;16.24;91.42;100872.31;5042847;28;20409;-59
2022/09/15 09:41:18;;;;;;;5.93;4.70;;;;;;;16.22;92.13;100865.41;5038246;28;20028;-57
2022/09/15 09:43:46;;;;;;;10.10;4.85;;;;;;;16.28;89.50;100883.56;5047038;28;20039;-59
2022/09/15 09:46:18;;;;;;;10.50;4.55;;;;;;;16.23;90.04;100867.94;5057493;28;20032;-58
2022/09/15 09:48:50;;;;;;;9.15;5.10;;;;;;;16.24;89.85;100874.16;5041391;28;20029;-55
2022/09/15 09:51:47;;;;;;;10.43;5.68;;;;;;;16.29;90.36;100877.22;5048811;28;20029;-58
2022/09/15 09:54:15;;;;;;;10.93;5.55;;;;;;;16.22;88.10;100878.81;5043512;28;20072;-58
2022/09/15 09:56:42;;;;;;;9.90;6.13;;;;;;;16.24;88.31;100871.47;5041175;28;20032;-58
2022/09/15 09:59:33;;;;;;;7.75;5.43;;;;;;;16.26;90.75;100864.94;5045750;28;20029;-57
2022/09/15 10:02:10;;;;;;;9.50;6.57;;;;;;;16.33;90.85;100872.38;5041398;28;20033;-58
2022/09/15 10:04:42;;;;;;;11.95;6.75;;;;;;;16.24;89.48;100874.16;5036690;28;20104;-58
2022/09/15 10:07:07;;;;;;;10.98;6.18;;;;;;;16.19;89.45;100879.13;5044634;28;20119;-58
2022/09/15 10:09:33;;;;;;;12.48;7.05;;;;;;;16.16;89.20;100877.59;5046486;28;20148;-58
2022/09/15 10:12:04;;;;;;;13.00;7.15;;;;;;;16.14;89.56;100886.75;5046533;28;20028;-58
2022/09/15 10:14:39;;;;;;;10.57;6.55;;;;;;;16.17;88.84;100886.47;5046046;28;20040;-59
2022/09/15 10:17:44;;;;;;;9.40;5.50;;;;;;;16.20;90.01;100891.53;5053020;28;20048;-58
2022/09/15 10:20:32;;;;;;;8.30;4.78;;;;;;;16.06;90.17;100888.38;5053704;28;20071;-58
2022/09/15 10:23:02;;;;;;;12.02;5.30;;;;;;;16.05;90.07;100883.16;5053255;28;20478;-58
2022/09/15 10:25:31;;;;;;;10.00;5.10;;;;;;;16.03;90.29;100883.31;5052827;28;20433;-58
2022/09/15 10:28:12;;;;;;;9.38;5.00;;;;;;;16.05;90.37;100880.50;5045975;28;20048;-58
2022/09/15 10:30:55;;;;;;;9.20;5.15;;;;;;;16.05;91.44;100876.00;5044830;28;20029;-58
2022/09/15 10:33:25;;;;;;;9.00;3.90;;;;;;;16.00;90.05;100874.75;5045223;28;20040;-58
2022/09/15 10:35:53;;;;;;;7.28;2.95;;;;;;;16.02;89.03;100880.78;5046588;28;20025;-58
2022/09/15 10:38:32;;;;;;;10.02;4.25;;;;;;;16.07;88.67;100881.16;5043189;28;20102;-58
2022/09/15 10:41:12;;;;;;;6.30;3.22;;;;;;;16.13;88.43;100880.56;5035899;28;20067;-58
2022/09/15 10:44:13;;;;;;;9.20;2.38;;;;;;;16.10;88.08;100883.56;5046036;28;20072;-58
2022/09/15 10:46:53;;;;;;;4.93;2.45;;;;;;;16.12;88.14;100886.94;5055494;28;20033;-58
2022/09/15 10:49:34;;;;;;;4.97;2.45;;;;;;;16.11;88.34;100900.50;5045336;28;20043;-58
2022/09/15 10:52:18;;;;;;;7.03;2.55;;;;;;;16.18;88.34;100888.16;5033092;28;20037;-58
2022/09/15 10:55:02;;;;;;;4.93;2.15;;;;;;;16.21;88.45;100896.72;5048863;28;20037;-58
2022/09/15 10:58:04;;;;;;;9.85;3.78;;;;;;;16.26;89.01;100896.28;5051947;28;20032;-58
2022/09/15 11:00:44;;;;;;;6.70;2.80;;;;;;;16.22;87.61;100900.25;5038085;28;20044;-59
2022/09/15 11:04:04;;;;;;;6.32;2.20;;;;;;;16.35;88.14;100899.88;5071854;28;20075;-58
2022/09/15 11:06:50;;;;;;;7.90;2.10;;;;;;;16.37;87.04;100895.19;5030978;28;20037;-57
2022/09/15 11:09:32;;;;;;;6.53;1.80;;;;;;;16.46;85.56;100896.94;5048584;28;20041;-58
2022/09/15 11:12:15;;;;;;;5.63;1.42;;;;;;;16.51;85.25;100894.66;5043555;28;20476;-58
2022/09/15 11:15:13;;;;;;;7.10;1.60;;;;;;;16.68;82.90;100903.66;5031998;28;20030;-58
2022/09/15 11:18:06;;;;;;;7.80;1.98;;;;;;;16.82;84.16;100899.59;5048244;28;20056;-58
2022/09/15 11:20:41;;;;;;;5.90;1.42;;;;;;;16.92;79.35;100904.84;5048735;28;20021;-58
2022/09/15 11:23:12;;;;;;;5.80;1.58;;;;;;;16.96;78.31;100899.03;5050056;28;20048;-58